Time;durP1;ratioP1;P1;durP2;ratioP2;P2;SDS_P1;SDS_P2;PMS_P1;PMS_P2;Temp;Humidity;BMP_temperature;BMP_pressure;BME280_temperature;BME280_humidity;BME280_pressure;Samples;Min_cycle;Max_cycle;Signal;HPM_P1;HPM_P2
2023/04/20 00:00:20;;;;;;;5.63;4.90;;;8.20;99.90;;;;;;4930298;29;20307;-67
2023/04/20 00:02:47;;;;;;;5.87;5.27;;;8.20;99.90;;;;;;4930480;29;20242;-67
2023/04/20 00:05:16;;;;;;;5.17;4.77;;;8.20;99.90;;;;;;4930961;29;20307;-67
2023/04/20 00:07:42;;;;;;;5.23;4.83;;;8.30;99.90;;;;;;4930649;29;20236;-67
2023/04/20 00:10:10;;;;;;;5.70;5.20;;;8.30;99.90;;;;;;4930683;29;20311;-67
2023/04/20 00:12:37;;;;;;;5.00;4.57;;;8.20;99.90;;;;;;4910460;29;20303;-67
2023/04/20 00:15:05;;;;;;;5.57;5.10;;;8.20;99.90;;;;;;4926817;29;20286;-67
2023/04/20 00:17:32;;;;;;;5.13;4.70;;;8.20;99.90;;;;;;4929849;29;20352;-67
2023/04/20 00:19:58;;;;;;;4.90;4.43;;;8.20;99.90;;;;;;4930170;29;20619;-67
2023/04/20 00:22:27;;;;;;;5.00;4.60;;;8.20;99.90;;;;;;4929871;29;20326;-67
2023/04/20 00:24:54;;;;;;;4.93;4.50;;;8.20;99.90;;;;;;4930269;29;20259;-67
2023/04/20 00:27:21;;;;;;;5.10;4.70;;;8.20;99.90;;;;;;4930453;29;20231;-66
2023/04/20 00:29:47;;;;;;;5.17;4.60;;;8.20;99.90;;;;;;4930142;29;20255;-66
2023/04/20 00:32:14;;;;;;;4.97;4.47;;;8.30;99.90;;;;;;4929974;29;20227;-66
2023/04/20 00:34:41;;;;;;;5.27;4.73;;;8.30;99.90;;;;;;4934015;29;20294;-66
2023/04/20 00:37:08;;;;;;;5.23;4.67;;;8.30;99.90;;;;;;4949152;28;20812;-66
2023/04/20 00:39:37;;;;;;;5.67;4.50;;;8.20;99.90;;;;;;4949796;28;20302;-66
2023/04/20 00:42:05;;;;;;;5.10;4.70;;;8.30;99.90;;;;;;4942854;28;20303;-66
2023/04/20 00:44:32;;;;;;;5.60;4.90;;;8.20;99.90;;;;;;4929846;29;20212;-66
2023/04/20 00:46:58;;;;;;;5.20;4.40;;;8.30;99.90;;;;;;4929582;29;20299;-67
2023/04/20 00:49:28;;;;;;;5.10;4.70;;;8.20;99.90;;;;;;4919921;29;20300;-66
2023/04/20 00:51:56;;;;;;;5.13;4.63;;;8.20;99.90;;;;;;4914167;29;20216;-68
2023/04/20 00:54:23;;;;;;;4.90;4.37;;;8.20;99.90;;;;;;4929770;29;20310;-68
2023/04/20 00:56:53;;;;;;;5.07;4.67;;;8.20;99.90;;;;;;4929323;29;20308;-68
2023/04/20 00:59:21;;;;;;;5.70;4.60;;;8.20;99.90;;;;;;4929359;29;20307;-68
2023/04/20 01:01:48;;;;;;;4.80;4.40;;;8.10;99.90;;;;;;4929333;29;20732;-68
2023/04/20 01:04:16;;;;;;;4.70;4.30;;;8.10;99.90;;;;;;4929917;29;20231;-68
2023/04/20 01:06:43;;;;;;;4.90;4.50;;;8.10;99.90;;;;;;4929482;29;20208;-67
2023/04/20 01:09:11;;;;;;;4.70;4.40;;;8.20;99.90;;;;;;4929826;29;20307;-68
2023/04/20 01:11:38;;;;;;;4.60;4.20;;;8.10;99.90;;;;;;4929344;29;20238;-67
2023/04/20 01:14:06;;;;;;;4.30;4.00;;;8.10;99.90;;;;;;4934034;29;20583;-67
2023/04/20 01:16:35;;;;;;;4.87;4.47;;;8.10;99.90;;;;;;4948152;28;20290;-67
2023/04/20 01:19:02;;;;;;;4.90;4.50;;;8.10;99.90;;;;;;4948386;28;20208;-68
2023/04/20 01:21:30;;;;;;;5.53;4.20;;;8.10;99.90;;;;;;4948399;28;20211;-68
2023/04/20 01:23:59;;;;;;;4.17;3.87;;;8.10;99.90;;;;;;4928431;28;20240;-68
2023/04/20 01:26:26;;;;;;;4.50;4.20;;;8.10;99.90;;;;;;4928584;29;20607;-67
2023/04/20 01:28:53;;;;;;;6.67;4.93;;;8.00;99.90;;;;;;4928031;29;20627;-68
2023/04/20 01:31:20;;;;;;;4.50;4.17;;;8.00;99.90;;;;;;4929203;29;20701;-67
2023/04/20 01:33:47;;;;;;;5.00;4.50;;;7.90;99.90;;;;;;4928691;29;20218;-67
2023/04/20 01:36:15;;;;;;;4.97;4.47;;;7.90;99.90;;;;;;4928784;29;20660;-68
2023/04/20 01:38:41;;;;;;;5.07;4.67;;;7.90;99.90;;;;;;4928765;29;20207;-67
2023/04/20 01:41:17;;;;;;;4.90;4.60;;;7.90;99.90;;;;;;4928777;29;20210;-67
2023/04/20 01:43:44;;;;;;;5.33;4.83;;;7.90;99.90;;;;;;4928864;29;20323;-67
2023/04/20 01:46:11;;;;;;;4.63;4.33;;;7.90;99.90;;;;;;4928179;29;20271;-67
2023/04/20 01:48:38;;;;;;;4.67;4.27;;;7.90;99.90;;;;;;4928925;29;20680;-67
2023/04/20 01:51:05;;;;;;;5.03;4.63;;;7.90;99.90;;;;;;4928961;29;20232;-67
2023/04/20 01:53:32;;;;;;;4.93;4.53;;;7.90;99.90;;;;;;4928437;29;20291;-67
2023/04/20 01:56:00;;;;;;;4.87;4.37;;;7.80;99.90;;;;;;4928632;29;20208;-67
2023/04/20 01:58:28;;;;;;;5.07;4.60;;;7.80;99.90;;;;;;4928005;29;20212;-67
2023/04/20 02:00:55;;;;;;;4.80;4.40;;;7.80;99.90;;;;;;4928385;29;20208;-67
2023/04/20 02:03:22;;;;;;;5.50;4.93;;;7.80;99.90;;;;;;4928580;29;20262;-67
2023/04/20 02:05:49;;;;;;;4.67;4.37;;;7.80;99.90;;;;;;4928120;29;20208;-68
2023/04/20 02:08:15;;;;;;;5.23;4.83;;;7.80;99.90;;;;;;4928434;29;20319;-68
2023/04/20 02:10:42;;;;;;;4.80;4.40;;;7.80;99.90;;;;;;4927969;29;20294;-68
2023/04/20 02:13:10;;;;;;;5.03;4.63;;;7.80;99.90;;;;;;4928105;29;20330;-68
2023/04/20 02:15:38;;;;;;;4.87;4.57;;;7.70;99.90;;;;;;4928183;29;20208;-68
2023/04/20 02:18:05;;;;;;;5.67;5.17;;;7.70;99.90;;;;;;4928104;29;20267;-68
2023/04/20 02:20:32;;;;;;;5.90;5.43;;;7.70;99.90;;;;;;4927873;29;20286;-67
2023/04/20 02:22:59;;;;;;;6.13;5.53;;;7.70;99.90;;;;;;4927308;29;20790;-68
2023/04/20 02:25:27;;;;;;;5.37;4.83;;;7.70;99.90;;;;;;4927965;29;20300;-68
2023/04/20 02:27:53;;;;;;;5.40;5.00;;;7.70;99.90;;;;;;4926782;29;20238;-67
2023/04/20 02:30:21;;;;;;;5.30;4.80;;;7.80;99.90;;;;;;4926038;29;20977;-68
2023/04/20 02:32:49;;;;;;;5.33;4.90;;;7.80;99.90;;;;;;4925988;29;20219;-68
2023/04/20 02:35:16;;;;;;;5.53;5.13;;;7.80;99.90;;;;;;4926120;29;20251;-67
2023/04/20 02:37:43;;;;;;;5.03;4.63;;;7.80;99.90;;;;;;4926369;29;20208;-68
2023/04/20 02:40:11;;;;;;;5.83;5.33;;;7.80;99.90;;;;;;4926402;29;20294;-68
2023/04/20 02:42:38;;;;;;;5.17;4.77;;;7.80;99.90;;;;;;4911311;29;20217;-68
2023/04/20 02:45:06;;;;;;;6.07;5.57;;;7.70;99.90;;;;;;4907430;29;20945;-68
2023/04/20 02:47:33;;;;;;;5.67;5.10;;;7.80;99.90;;;;;;4907248;29;20220;-68
2023/04/20 02:50:01;;;;;;;5.80;5.40;;;7.80;99.90;;;;;;4923891;29;20330;-67
2023/04/20 02:52:28;;;;;;;6.37;5.87;;;7.80;99.90;;;;;;4926164;29;20209;-68
2023/04/20 02:54:55;;;;;;;6.10;5.63;;;7.80;99.90;;;;;;4926132;29;20287;-68
2023/04/20 02:57:24;;;;;;;6.07;5.57;;;7.80;99.90;;;;;;4926515;29;20222;-68
2023/04/20 02:59:51;;;;;;;5.97;5.53;;;7.90;99.90;;;;;;4925822;29;20295;-68
2023/04/20 03:02:18;;;;;;;5.83;5.33;;;7.90;99.90;;;;;;4925970;29;20208;-68
2023/04/20 03:04:45;;;;;;;6.47;5.87;;;7.90;99.90;;;;;;4926106;29;20343;-69
2023/04/20 03:07:13;;;;;;;6.07;5.57;;;7.90;99.90;;;;;;4926561;29;20328;-68
2023/04/20 03:09:40;;;;;;;6.70;6.10;;;7.90;99.90;;;;;;4924546;29;20210;-69
2023/04/20 03:12:07;;;;;;;6.73;5.90;;;7.80;99.90;;;;;;4927123;29;20295;-69
2023/04/20 03:14:35;;;;;;;6.93;5.50;;;7.90;99.90;;;;;;4926813;29;20303;-69
2023/04/20 03:17:02;;;;;;;6.13;5.63;;;7.90;99.90;;;;;;4926507;29;20267;-69
2023/04/20 03:19:28;;;;;;;6.47;5.87;;;8.00;99.90;;;;;;4927016;29;20306;-69
2023/04/20 03:21:55;;;;;;;6.27;5.87;;;8.00;99.90;;;;;;4926250;29;20218;-69
2023/04/20 03:24:24;;;;;;;6.87;6.27;;;8.00;99.90;;;;;;4926800;29;20976;-69
2023/04/20 03:26:51;;;;;;;6.73;6.13;;;8.10;99.90;;;;;;4926495;29;20734;-69
2023/04/20 03:29:17;;;;;;;7.23;6.53;;;8.10;99.90;;;;;;4927438;29;20214;-69
2023/04/20 03:31:45;;;;;;;7.53;6.60;;;8.20;99.90;;;;;;4927779;29;20299;-69
2023/04/20 03:34:12;;;;;;;7.40;6.60;;;8.00;99.90;;;;;;4927634;29;20218;-69
2023/04/20 03:36:38;;;;;;;8.17;6.60;;;8.00;99.90;;;;;;4927398;29;20218;-69
2023/04/20 03:39:06;;;;;;;7.63;6.90;;;8.00;99.90;;;;;;4927236;29;20299;-69
2023/04/20 03:41:34;;;;;;;7.57;6.87;;;7.90;99.90;;;;;;4927613;29;20240;-69
2023/04/20 03:44:01;;;;;;;7.97;7.27;;;8.00;99.90;;;;;;4927154;29;20774;-69
2023/04/20 03:46:28;;;;;;;7.83;7.20;;;8.00;99.90;;;;;;4927378;29;20215;-69
2023/04/20 03:48:55;;;;;;;7.17;6.57;;;8.00;99.90;;;;;;4931353;29;20220;-69
2023/04/20 03:51:22;;;;;;;8.13;7.33;;;8.10;99.90;;;;;;4931038;29;20258;-69
2023/04/20 03:53:48;;;;;;;7.57;6.90;;;8.10;99.90;;;;;;4930531;29;20295;-70
2023/04/20 03:56:15;;;;;;;7.33;6.73;;;8.10;99.90;;;;;;4930586;29;20224;-69
2023/04/20 03:58:43;;;;;;;7.83;7.00;;;8.10;99.90;;;;;;4930491;29;20248;-69
2023/04/20 04:01:12;;;;;;;7.23;6.63;;;8.10;99.90;;;;;;4930575;29;20291;-69
2023/04/20 04:03:39;;;;;;;7.53;6.57;;;8.10;99.90;;;;;;4930422;29;20933;-69
2023/04/20 04:06:06;;;;;;;7.93;7.23;;;8.20;99.90;;;;;;4930533;29;20303;-69
2023/04/20 04:08:33;;;;;;;7.43;6.80;;;8.10;99.90;;;;;;4930713;29;20263;-69
2023/04/20 04:11:00;;;;;;;8.60;7.80;;;8.20;99.90;;;;;;4929808;29;20701;-69
2023/04/20 04:13:27;;;;;;;9.03;8.13;;;8.10;99.90;;;;;;4930192;29;20567;-69
2023/04/20 04:15:56;;;;;;;9.10;8.20;;;8.10;99.90;;;;;;4929925;29;20299;-70
2023/04/20 04:18:23;;;;;;;9.40;8.43;;;8.10;99.90;;;;;;4930066;29;20236;-69
2023/04/20 04:20:50;;;;;;;9.23;8.37;;;8.10;99.90;;;;;;4929969;29;20375;-69
2023/04/20 04:23:16;;;;;;;9.63;8.70;;;8.10;99.90;;;;;;4929822;29;20251;-69
2023/04/20 04:25:44;;;;;;;10.47;9.47;;;8.10;99.90;;;;;;4929662;29;20649;-69
2023/04/20 04:28:13;;;;;;;12.17;10.97;;;8.20;99.90;;;;;;4930159;29;20774;-69
2023/04/20 04:30:40;;;;;;;13.33;11.10;;;8.10;99.90;;;;;;4929540;29;20216;-69
2023/04/20 04:33:13;;;;;;;12.43;10.53;;;8.20;99.90;;;;;;4929159;29;20796;-69
2023/04/20 04:35:40;;;;;;;11.70;10.30;;;8.20;99.90;;;;;;4911274;29;20264;-69
2023/04/20 04:38:07;;;;;;;11.57;10.23;;;8.20;99.90;;;;;;4911383;29;20220;-69
2023/04/20 04:40:34;;;;;;;11.37;9.30;;;8.20;99.90;;;;;;4913018;29;20668;-69
2023/04/20 04:43:01;;;;;;;13.97;10.60;;;8.20;99.90;;;;;;4929900;29;20216;-69
2023/04/20 04:45:28;;;;;;;12.80;10.83;;;8.10;99.90;;;;;;4929897;29;20254;-69
2023/04/20 04:47:57;;;;;;;11.50;10.27;;;8.10;99.90;;;;;;4929644;29;20298;-69
2023/04/20 04:50:26;;;;;;;14.50;10.57;;;8.10;99.90;;;;;;4929857;29;20216;-69
2023/04/20 04:52:53;;;;;;;12.47;10.90;;;8.10;99.90;;;;;;4929484;29;20220;-69
2023/04/20 04:55:20;;;;;;;11.70;10.23;;;8.10;99.90;;;;;;4929699;29;20215;-69
2023/04/20 04:57:47;;;;;;;11.57;10.37;;;8.10;99.90;;;;;;4929564;29;20318;-69
2023/04/20 05:00:15;;;;;;;13.23;10.63;;;8.20;99.90;;;;;;4928773;29;20216;-69
2023/04/20 05:02:41;;;;;;;12.07;10.33;;;8.20;99.90;;;;;;4929642;29;20287;-69
2023/04/20 05:05:09;;;;;;;12.47;9.83;;;8.40;99.90;;;;;;4929604;29;20243;-69
2023/04/20 05:07:38;;;;;;;10.63;9.53;;;8.30;99.90;;;;;;4929644;29;20264;-69
2023/04/20 05:10:07;;;;;;;11.70;9.63;;;8.30;99.90;;;;;;4927533;29;20694;-69
2023/04/20 05:12:34;;;;;;;11.20;10.10;;;8.30;99.90;;;;;;4929555;29;20212;-69
2023/04/20 05:15:02;;;;;;;11.57;9.77;;;8.30;99.90;;;;;;4929080;29;20287;-69
2023/04/20 05:17:28;;;;;;;11.30;10.20;;;8.30;99.90;;;;;;4929133;29;20335;-69
2023/04/20 05:19:58;;;;;;;10.60;9.60;;;8.40;99.90;;;;;;4929335;29;20243;-69
2023/04/20 05:22:25;;;;;;;10.43;9.43;;;8.40;99.90;;;;;;4929404;29;20303;-69
2023/04/20 05:24:55;;;;;;;10.87;9.60;;;8.40;99.90;;;;;;4928646;29;20236;-69
2023/04/20 05:27:22;;;;;;;10.63;9.63;;;8.40;99.90;;;;;;4929095;29;20236;-69
2023/04/20 05:29:49;;;;;;;11.50;10.10;;;8.40;99.90;;;;;;4925496;29;20292;-69
2023/04/20 05:32:15;;;;;;;10.37;9.37;;;8.50;99.90;;;;;;4910452;29;20260;-69
2023/04/20 05:34:42;;;;;;;9.90;8.90;;;8.50;99.90;;;;;;4909881;29;20257;-69
2023/04/20 05:37:09;;;;;;;9.23;8.43;;;8.50;99.90;;;;;;4914766;29;20809;-68
2023/04/20 05:39:36;;;;;;;9.60;8.73;;;8.60;99.90;;;;;;4929443;29;20577;-69
2023/04/20 05:42:05;;;;;;;9.70;8.80;;;8.60;99.90;;;;;;4928638;29;20219;-68
2023/04/20 05:44:32;;;;;;;10.40;9.40;;;8.60;99.90;;;;;;4928632;29;20272;-69
2023/04/20 05:46:59;;;;;;;10.20;9.30;;;8.60;99.90;;;;;;4928559;29;20271;-69
2023/04/20 05:49:26;;;;;;;10.53;8.80;;;8.60;99.90;;;;;;4928494;29;20614;-69
2023/04/20 05:51:53;;;;;;;9.97;9.07;;;8.60;99.90;;;;;;4928676;29;20922;-69
2023/04/20 05:54:21;;;;;;;9.63;8.43;;;8.60;99.90;;;;;;4928791;29;20267;-69
2023/04/20 05:56:48;;;;;;;9.70;8.80;;;8.70;99.90;;;;;;4928743;29;20216;-69
2023/04/20 05:59:16;;;;;;;10.60;8.50;;;8.70;99.90;;;;;;4928516;29;20331;-69
2023/04/20 06:01:43;;;;;;;9.27;8.37;;;8.70;99.90;;;;;;4928638;29;20299;-69
2023/04/20 06:04:10;;;;;;;9.60;8.57;;;8.70;99.90;;;;;;4928334;29;20236;-69
2023/04/20 06:06:37;;;;;;;9.67;8.40;;;8.70;99.90;;;;;;4928291;29;20220;-69
2023/04/20 06:09:04;;;;;;;9.90;8.90;;;8.70;99.90;;;;;;4928141;29;20243;-69
2023/04/20 06:11:31;;;;;;;9.87;8.73;;;8.70;99.90;;;;;;4927878;29;20208;-69
2023/04/20 06:13:58;;;;;;;9.63;8.67;;;8.70;99.90;;;;;;4927707;29;20307;-69
2023/04/20 06:16:26;;;;;;;9.87;8.97;;;8.80;99.90;;;;;;4928142;29;20331;-69
2023/04/20 06:18:53;;;;;;;9.90;9.00;;;8.80;99.90;;;;;;4928415;29;20287;-69
2023/04/20 06:21:20;;;;;;;9.07;8.17;;;8.80;99.90;;;;;;4928227;29;20734;-69
2023/04/20 06:23:47;;;;;;;11.80;9.83;;;8.80;99.90;;;;;;4927769;29;20299;-68
2023/04/20 06:26:14;;;;;;;10.23;9.30;;;8.80;99.90;;;;;;4927797;29;20246;-68
2023/04/20 06:28:41;;;;;;;11.77;10.53;;;8.80;99.90;;;;;;4927922;29;20319;-68
2023/04/20 06:31:08;;;;;;;10.87;9.87;;;8.80;99.90;;;;;;4928208;29;20212;-68
2023/04/20 06:33:37;;;;;;;10.20;9.20;;;8.80;99.90;;;;;;4925162;29;20225;-68
2023/04/20 06:36:07;;;;;;;11.03;9.83;;;8.80;99.90;;;;;;4909076;29;20241;-68
2023/04/20 06:38:34;;;;;;;13.30;10.37;;;8.80;99.90;;;;;;4909436;29;20652;-68
2023/04/20 06:41:01;;;;;;;11.80;10.60;;;8.80;99.90;;;;;;4908557;29;20890;-68
2023/04/20 06:43:29;;;;;;;10.33;9.30;;;8.80;99.90;;;;;;4908686;29;20209;-68
2023/04/20 06:45:56;;;;;;;14.30;10.03;;;8.70;99.90;;;;;;4908592;29;20283;-68
2023/04/20 06:48:23;;;;;;;11.10;10.00;;;8.80;99.90;;;;;;4920338;29;20322;-68
2023/04/20 06:50:51;;;;;;;11.00;9.90;;;8.80;99.90;;;;;;4928074;29;20290;-68
2023/04/20 06:53:18;;;;;;;12.47;10.67;;;8.80;99.90;;;;;;4927921;29;20284;-68
2023/04/20 06:55:45;;;;;;;11.90;10.07;;;8.80;99.90;;;;;;4927499;29;20714;-68
2023/04/20 06:58:12;;;;;;;10.83;9.63;;;8.80;99.90;;;;;;4928205;29;20231;-68
2023/04/20 07:00:39;;;;;;;10.27;9.27;;;8.90;99.90;;;;;;4927673;29;20222;-68
2023/04/20 07:03:06;;;;;;;11.63;10.20;;;8.90;99.90;;;;;;4927625;29;20667;-68
2023/04/20 07:05:32;;;;;;;10.43;9.33;;;9.00;99.90;;;;;;4927519;29;20323;-68
2023/04/20 07:08:01;;;;;;;11.40;10.30;;;9.00;99.90;;;;;;4927849;29;20246;-68
2023/04/20 07:10:28;;;;;;;12.57;9.70;;;9.00;99.90;;;;;;4927368;29;20766;-68
2023/04/20 07:12:54;;;;;;;11.13;9.97;;;9.00;99.90;;;;;;4927731;29;20219;-68
2023/04/20 07:15:21;;;;;;;12.23;9.83;;;9.00;99.90;;;;;;4927605;29;20291;-69
2023/04/20 07:17:48;;;;;;;10.97;9.77;;;9.00;99.90;;;;;;4927608;29;20528;-69
2023/04/20 07:20:15;;;;;;;10.37;9.37;;;9.10;99.90;;;;;;4927715;29;20294;-69
2023/04/20 07:22:42;;;;;;;10.83;9.57;;;9.20;99.90;;;;;;4928620;29;20239;-69
2023/04/20 07:25:10;;;;;;;11.27;10.10;;;9.30;99.90;;;;;;4930907;29;20887;-69
2023/04/20 07:27:39;;;;;;;10.07;8.93;;;9.30;99.90;;;;;;4930970;29;20299;-69
2023/04/20 07:30:09;;;;;;;10.10;9.23;;;9.30;99.90;;;;;;4930613;29;20208;-69
2023/04/20 07:32:37;;;;;;;10.17;9.17;;;9.30;99.90;;;;;;4931136;29;20208;-69
2023/04/20 07:35:04;;;;;;;10.83;9.70;;;9.40;99.90;;;;;;4930879;29;20263;-69
2023/04/20 07:37:31;;;;;;;10.60;9.50;;;9.30;99.90;;;;;;4931573;29;20204;-69
2023/04/20 07:39:58;;;;;;;9.90;8.90;;;9.30;99.90;;;;;;4931225;29;20243;-69
2023/04/20 07:42:26;;;;;;;10.90;9.70;;;9.30;99.90;;;;;;4931286;29;20216;-69
2023/04/20 07:44:54;;;;;;;10.40;9.50;;;9.40;99.90;;;;;;4930359;29;20322;-69
2023/04/20 07:47:21;;;;;;;11.37;10.07;;;9.40;99.90;;;;;;4931047;29;20295;-69
2023/04/20 07:49:47;;;;;;;10.87;9.87;;;9.50;99.90;;;;;;4930914;29;20307;-69
2023/04/20 07:52:14;;;;;;;11.47;9.47;;;9.50;99.90;;;;;;4930822;29;20216;-69
2023/04/20 07:54:41;;;;;;;10.10;9.10;;;9.60;99.90;;;;;;4930738;29;20212;-69
2023/04/20 07:57:08;;;;;;;11.17;10.07;;;9.60;99.90;;;;;;4930768;29;20248;-68
2023/04/20 07:59:37;;;;;;;10.67;9.67;;;9.60;99.90;;;;;;4930244;29;20220;-69
2023/04/20 08:02:03;;;;;;;10.93;9.67;;;9.60;99.90;;;;;;4930621;29;21040;-69
2023/04/20 08:04:31;;;;;;;11.33;10.23;;;9.60;99.90;;;;;;4930455;29;20303;-69
2023/04/20 08:06:59;;;;;;;11.57;9.93;;;9.60;99.90;;;;;;4930665;29;20811;-68
2023/04/20 08:09:27;;;;;;;11.37;10.37;;;9.70;99.90;;;;;;4930895;29;20212;-68
2023/04/20 08:11:54;;;;;;;12.10;10.90;;;9.70;99.90;;;;;;4930040;29;20212;-69
2023/04/20 08:14:21;;;;;;;11.40;10.27;;;9.70;99.90;;;;;;4930453;29;20235;-69
2023/04/20 08:16:49;;;;;;;10.13;9.10;;;9.70;99.90;;;;;;4930057;29;20339;-69
2023/04/20 08:19:16;;;;;;;11.83;10.57;;;9.70;99.90;;;;;;4929964;29;20220;-68
2023/04/20 08:21:43;;;;;;;11.53;10.33;;;9.70;99.90;;;;;;4929745;29;20212;-69
2023/04/20 08:24:11;;;;;;;11.10;9.93;;;9.80;99.90;;;;;;4911559;29;20303;-68
2023/04/20 08:26:39;;;;;;;11.20;10.10;;;9.80;99.90;;;;;;4920616;29;20232;-69
2023/04/20 08:29:06;;;;;;;11.37;10.23;;;9.90;99.90;;;;;;4930009;29;20303;-68
2023/04/20 08:31:33;;;;;;;10.73;9.70;;;10.10;99.90;;;;;;4930491;29;20216;-69
2023/04/20 08:34:01;;;;;;;10.30;9.30;;;10.20;99.90;;;;;;4929123;29;20704;-69
2023/04/20 08:36:28;;;;;;;10.93;9.90;;;10.20;99.90;;;;;;4930206;29;20220;-69
2023/04/20 08:39:04;;;;;;;9.50;8.60;;;10.30;99.90;;;;;;4930016;29;20214;-69
2023/04/20 08:41:31;;;;;;;9.70;8.80;;;10.40;99.90;;;;;;4930060;29;20683;-69
2023/04/20 08:43:58;;;;;;;9.70;8.83;;;10.50;99.90;;;;;;4929612;29;20235;-69
2023/04/20 08:46:25;;;;;;;10.60;9.60;;;10.40;99.90;;;;;;4929419;29;20232;-68
2023/04/20 08:48:54;;;;;;;10.87;9.83;;;10.40;99.90;;;;;;4929320;29;20220;-69
2023/04/20 08:51:24;;;;;;;12.13;10.37;;;10.40;99.90;;;;;;4929940;29;20219;-69
2023/04/20 08:53:51;;;;;;;11.73;10.47;;;10.30;99.90;;;;;;4929209;29;21011;-69
2023/04/20 08:56:18;;;;;;;12.00;10.53;;;10.30;99.90;;;;;;4929759;29;20251;-69
2023/04/20 08:58:45;;;;;;;11.97;10.77;;;10.20;99.90;;;;;;4929280;29;20658;-69
2023/04/20 09:01:12;;;;;;;11.67;10.43;;;10.20;99.90;;;;;;4929948;29;20203;-69
2023/04/20 09:03:41;;;;;;;11.77;10.57;;;10.20;99.90;;;;;;4929862;29;20323;-69
2023/04/20 09:06:15;;;;;;;12.53;11.23;;;10.10;99.90;;;;;;4929541;29;20236;-69
2023/04/20 09:08:44;;;;;;;12.43;11.10;;;10.10;99.90;;;;;;4929061;29;20232;-69
2023/04/20 09:11:22;;;;;;;12.27;10.93;;;10.10;99.90;;;;;;4929637;29;20295;-69
2023/04/20 09:13:58;;;;;;;11.60;10.47;;;10.00;99.90;;;;;;4929526;29;20208;-69
2023/04/20 09:16:25;;;;;;;12.10;10.93;;;10.00;99.90;;;;;;4929140;29;20266;-69
2023/04/20 09:18:53;;;;;;;12.17;10.37;;;9.90;99.90;;;;;;4929211;29;20239;-69
2023/04/20 09:21:21;;;;;;;11.53;10.40;;;9.90;99.90;;;;;;4929162;29;20228;-70
2023/04/20 09:23:58;;;;;;;11.50;10.40;;;9.80;99.90;;;;;;4914431;29;20243;-69
2023/04/20 09:26:25;;;;;;;11.60;10.50;;;9.80;99.90;;;;;;4909668;29;20240;-69
2023/04/20 09:28:52;;;;;;;13.60;12.30;;;9.80;99.90;;;;;;4914426;29;20323;-69
2023/04/20 09:31:20;;;;;;;13.13;11.03;;;9.80;99.90;;;;;;4928912;29;20671;-69
2023/04/20 09:33:56;;;;;;;12.67;11.37;;;9.80;99.90;;;;;;4928925;29;20303;-69
2023/04/20 09:36:23;;;;;;;12.63;11.43;;;9.80;99.90;;;;;;4928932;29;20311;-69
2023/04/20 09:39:03;;;;;;;12.70;11.40;;;9.70;99.90;;;;;;4929274;29;20302;-69
2023/04/20 09:41:32;;;;;;;11.50;10.40;;;9.70;99.90;;;;;;4929158;29;20200;-69
2023/04/20 09:44:00;;;;;;;12.70;11.40;;;9.80;99.90;;;;;;4928705;29;20216;-69
2023/04/20 09:46:31;;;;;;;13.70;11.57;;;9.70;99.90;;;;;;4928367;29;20254;-69
2023/04/20 09:48:59;;;;;;;10.93;9.80;;;9.70;99.90;;;;;;4928550;29;20647;-69
2023/04/20 09:51:27;;;;;;;11.30;10.10;;;9.80;99.90;;;;;;4928758;29;20587;-69
2023/04/20 09:53:55;;;;;;;12.00;10.80;;;9.80;99.90;;;;;;4928845;29;20646;-69
2023/04/20 09:56:24;;;;;;;11.60;10.50;;;9.80;99.90;;;;;;4928684;29;20321;-69
2023/04/20 09:58:51;;;;;;;11.53;10.33;;;9.90;99.90;;;;;;4928449;29;20223;-69
2023/04/20 10:01:19;;;;;;;11.37;10.27;;;10.00;99.90;;;;;;4928578;29;20224;-69
2023/04/20 10:03:47;;;;;;;13.63;10.93;;;10.10;99.90;;;;;;4928740;29;20215;-69
2023/04/20 10:06:21;;;;;;;11.73;10.50;;;10.20;99.90;;;;;;4928125;29;20239;-69
2023/04/20 10:08:49;;;;;;;11.53;10.23;;;10.40;99.90;;;;;;4928163;29;20208;-69
2023/04/20 10:11:33;;;;;;;11.23;10.13;;;10.50;99.90;;;;;;4928161;29;20291;-69
2023/04/20 10:14:02;;;;;;;11.60;9.83;;;10.60;99.90;;;;;;4928255;29;20203;-69
2023/04/20 10:16:29;;;;;;;11.90;10.80;;;10.60;99.90;;;;;;4928129;29;20236;-69
2023/04/20 10:19:01;;;;;;;11.27;10.17;;;10.70;99.90;;;;;;4928331;29;20208;-69
2023/04/20 10:21:29;;;;;;;11.27;10.27;;;10.80;99.90;;;;;;4928297;29;20972;-69
2023/04/20 10:23:57;;;;;;;11.13;10.13;;;10.80;99.90;;;;;;4927669;29;20621;-69
2023/04/20 10:26:36;;;;;;;10.73;9.70;;;10.90;99.90;;;;;;4928031;29;20240;-69
2023/04/20 10:29:05;;;;;;;10.73;9.73;;;10.90;99.90;;;;;;4927751;29;20215;-69
2023/04/20 10:31:37;;;;;;;10.20;9.30;;;10.90;99.90;;;;;;4928084;29;20299;-68
2023/04/20 10:34:04;;;;;;;10.10;9.20;;;11.00;99.90;;;;;;4927841;29;20211;-69
2023/04/20 10:36:33;;;;;;;10.53;9.53;;;11.00;99.90;;;;;;4928180;29;20303;-69
2023/04/20 10:39:03;;;;;;;10.77;9.73;;;11.00;99.90;;;;;;4927943;29;20722;-69
2023/04/20 10:41:31;;;;;;;10.80;9.77;;;11.10;99.90;;;;;;4928105;29;20211;-69
2023/04/20 10:44:08;;;;;;;14.33;10.90;;;11.10;99.90;;;;;;4927846;29;20212;-69
2023/04/20 10:46:35;;;;;;;9.80;8.83;;;11.20;99.90;;;;;;4928124;29;20319;-69
2023/04/20 10:49:02;;;;;;;10.13;9.23;;;11.30;99.90;;;;;;4927981;29;20208;-69
2023/04/20 10:51:29;;;;;;;8.67;7.87;;;11.50;99.90;;;;;;4927901;29;20837;-69
2023/04/20 10:54:01;;;;;;;10.47;8.90;;;11.60;99.90;;;;;;4927989;29;20273;-69
2023/04/20 10:56:28;;;;;;;9.87;8.97;;;11.70;99.90;;;;;;4928014;29;20307;-69
2023/04/20 10:58:54;;;;;;;10.67;9.67;;;11.90;99.90;;;;;;4931594;29;20416;-69
2023/04/20 11:01:23;;;;;;;11.33;10.13;;;12.00;99.90;;;;;;4931697;29;20212;-69
2023/04/20 11:03:51;;;;;;;9.73;8.90;;;12.00;99.90;;;;;;4931585;29;20300;-69
2023/04/20 11:06:18;;;;;;;9.50;8.60;;;12.00;99.90;;;;;;4931531;29;20235;-69
2023/04/20 11:08:45;;;;;;;9.90;9.00;;;12.10;99.90;;;;;;4931380;29;20216;-69
2023/04/20 11:11:19;;;;;;;9.50;8.70;;;12.20;99.90;;;;;;4931225;29;20757;-69
2023/04/20 11:13:47;;;;;;;10.03;9.20;;;12.20;99.90;;;;;;4931131;29;20248;-69
2023/04/20 11:16:15;;;;;;;10.77;9.77;;;12.30;99.90;;;;;;4941771;29;20631;-69
2023/04/20 11:18:54;;;;;;;9.77;8.77;;;12.30;99.90;;;;;;4950536;28;20251;-69
2023/04/20 11:21:22;;;;;;;9.67;8.87;;;12.30;99.90;;;;;;4950652;28;20199;-69
2023/04/20 11:23:50;;;;;;;10.20;9.27;;;12.40;99.90;;;;;;4950279;28;20733;-69
2023/04/20 11:26:17;;;;;;;9.63;8.73;;;12.30;99.90;;;;;;4950315;28;20330;-69
2023/04/20 11:29:02;;;;;;;10.43;9.43;;;12.20;99.90;;;;;;4945955;28;20205;-69
2023/04/20 11:31:29;;;;;;;10.43;9.53;;;12.10;99.90;;;;;;4931440;29;20251;-69
2023/04/20 11:33:57;;;;;;;10.50;9.60;;;12.10;99.90;;;;;;4931044;29;20208;-69
2023/04/20 11:36:27;;;;;;;10.20;9.30;;;12.00;99.90;;;;;;4931127;29;20262;-71
2023/04/20 11:38:54;;;;;;;10.07;9.10;;;11.90;99.90;;;;;;4930813;29;20234;-69
2023/04/20 11:41:22;;;;;;;10.23;9.33;;;11.90;99.90;;;;;;4931124;29;20216;-69
2023/04/20 11:43:50;;;;;;;10.50;9.50;;;11.80;99.90;;;;;;4930771;29;20750;-69
2023/04/20 11:46:18;;;;;;;10.00;9.07;;;11.80;99.90;;;;;;4931042;29;20228;-69
2023/04/20 11:48:45;;;;;;;11.00;9.97;;;11.70;99.90;;;;;;4930907;29;20240;-69
2023/04/20 11:51:13;;;;;;;10.03;9.23;;;11.70;99.90;;;;;;4931081;29;20243;-69
2023/04/20 11:53:41;;;;;;;10.73;9.73;;;11.70;99.90;;;;;;4930758;29;20685;-69
2023/04/20 11:56:08;;;;;;;10.17;9.23;;;11.70;99.90;;;;;;4930844;29;20212;-69
2023/04/20 11:58:36;;;;;;;10.40;9.40;;;11.70;99.90;;;;;;4930655;29;20618;-69
2023/04/20 12:01:04;;;;;;;11.90;10.23;;;11.80;99.90;;;;;;4930441;29;20223;-69
2023/04/20 12:03:31;;;;;;;9.87;8.90;;;12.00;99.90;;;;;;4930646;29;20219;-69
2023/04/20 12:05:58;;;;;;;11.20;10.13;;;12.00;99.90;;;;;;4930567;29;20212;-69
2023/04/20 12:08:26;;;;;;;12.43;9.60;;;12.20;99.90;;;;;;4930591;29;20271;-68
2023/04/20 12:10:53;;;;;;;10.17;9.27;;;12.30;99.90;;;;;;4930368;29;20258;-69
2023/04/20 12:13:20;;;;;;;10.43;9.50;;;12.40;99.90;;;;;;4930418;29;20319;-69
2023/04/20 12:15:47;;;;;;;10.57;9.50;;;12.50;99.90;;;;;;4930376;29;20312;-69
2023/04/20 12:18:14;;;;;;;10.53;9.47;;;12.70;99.90;;;;;;4930248;29;20279;-69
2023/04/20 12:20:41;;;;;;;10.07;9.17;;;12.90;99.90;;;;;;4930425;29;20616;-69
2023/04/20 12:23:08;;;;;;;10.23;9.27;;;12.90;99.90;;;;;;4918636;29;20341;-69
2023/04/20 12:25:36;;;;;;;10.13;9.33;;;13.00;99.90;;;;;;4919826;29;20263;-69
2023/04/20 12:28:05;;;;;;;10.47;9.50;;;13.10;99.90;;;;;;4930218;29;20240;-69
2023/04/20 12:30:34;;;;;;;10.03;9.13;;;13.20;99.90;;;;;;4929750;29;20667;-69
2023/04/20 12:33:01;;;;;;;9.70;8.80;;;13.30;99.90;;;;;;4930103;29;20230;-69
2023/04/20 12:35:28;;;;;;;9.70;8.80;;;13.40;99.90;;;;;;4929652;29;20224;-69
2023/04/20 12:37:55;;;;;;;10.20;9.20;;;13.50;99.90;;;;;;4929542;29;20715;-69
2023/04/20 12:40:22;;;;;;;9.60;8.70;;;13.50;99.90;;;;;;4929797;29;20248;-69
2023/04/20 12:42:50;;;;;;;10.40;9.40;;;13.50;99.90;;;;;;4930187;29;20310;-69
2023/04/20 12:45:17;;;;;;;10.47;9.47;;;13.60;99.90;;;;;;4929881;29;20247;-69
2023/04/20 12:47:44;;;;;;;10.50;9.50;;;13.70;99.90;;;;;;4929915;29;20236;-69